AFL1157 UUBW-ULLI
Flight info
| Callsign | AFL1157 |
|---|---|
| Flight time | 1h 14m |
| Altitude | 36000 |
| Route | SUNUN2B SUNUN M869 RAVKA N50 NUDKO T561 ODATI T875 GENPA GENPA1V |
| Aircraft | A319/M-SDE3FGHIRWY/LB1 |
Departure
| Time | 2026-04-30 20:30 |
|---|---|
| Airport | Zhukovsky International Airport (UUBW) |
Arrival
| Time | 2026-04-30 21:44 |
|---|---|
| Airport | Pulkovo Airport (ULLI) |
| Time | Latitude | Longitude | Altitude | Speed | Heading |
|---|---|---|---|---|---|
| 2026-04-30 19:47 | 55.56326 | 38.12106 | 399 ft | 0 kts | 222° |
| 2026-04-30 20:18 | 55.56339 | 38.12126 | 399 ft | 4 kts | 216° |
| 2026-04-30 20:18 | 55.56361 | 38.12149 | 397 ft | 4 kts | 197° |
| 2026-04-30 20:19 | 55.56386 | 38.12154 | 395 ft | 4 kts | 155° |
| 2026-04-30 20:19 | 55.56395 | 38.12144 | 397 ft | 0 kts | 131° |
| 2026-04-30 20:22 | 55.56393 | 38.12149 | 399 ft | 3 kts | 131° |
| 2026-04-30 20:22 | 55.56343 | 38.12248 | 399 ft | 16 kts | 132° |
| 2026-04-30 20:22 | 55.56264 | 38.12404 | 399 ft | 17 kts | 132° |
| 2026-04-30 20:22 | 55.56180 | 38.12564 | 394 ft | 18 kts | 138° |
| 2026-04-30 20:23 | 55.56097 | 38.12728 | 397 ft | 18 kts | 119° |
| 2026-04-30 20:23 | 55.56035 | 38.12924 | 393 ft | 19 kts | 131° |
| 2026-04-30 20:23 | 55.55948 | 38.13101 | 394 ft | 19 kts | 131° |
| 2026-04-30 20:23 | 55.55859 | 38.13284 | 399 ft | 20 kts | 131° |
| 2026-04-30 20:24 | 55.55849 | 38.13305 | 399 ft | 20 kts | 131° |
| 2026-04-30 20:24 | 55.55783 | 38.13437 | 398 ft | 20 kts | 133° |
| 2026-04-30 20:24 | 55.55685 | 38.13624 | 397 ft | 21 kts | 133° |
| 2026-04-30 20:24 | 55.55585 | 38.13816 | 395 ft | 22 kts | 132° |
| 2026-04-30 20:25 | 55.55384 | 38.14218 | 399 ft | 22 kts | 131° |
| 2026-04-30 20:25 | 55.55279 | 38.14426 | 398 ft | 23 kts | 131° |
| 2026-04-30 20:26 | 55.55065 | 38.14852 | 397 ft | 24 kts | 131° |
| 2026-04-30 20:26 | 55.54844 | 38.15292 | 396 ft | 24 kts | 131° |
| 2026-04-30 20:26 | 55.54732 | 38.15515 | 397 ft | 24 kts | 131° |
| 2026-04-30 20:27 | 55.54504 | 38.15970 | 396 ft | 25 kts | 131° |
| 2026-04-30 20:27 | 55.54297 | 38.16383 | 397 ft | 10 kts | 131° |
| 2026-04-30 20:28 | 55.54331 | 38.16596 | 398 ft | 12 kts | 41° |
| 2026-04-30 20:28 | 55.54434 | 38.16671 | 398 ft | 1 kts | 312° |
| 2026-04-30 20:29 | 55.54470 | 38.16599 | 395 ft | 19 kts | 312° |
| 2026-04-30 20:30 | 55.56107 | 38.13366 | 755 ft | 170 kts | 313° |
| 2026-04-30 20:30 | 55.58471 | 38.08720 | 2622 ft | 175 kts | 311° |
| 2026-04-30 20:31 | 55.60396 | 38.03225 | 4302 ft | 202 kts | 259° |
| 2026-04-30 20:32 | 55.57429 | 37.99414 | 6621 ft | 178 kts | 173° |
| 2026-04-30 20:32 | 55.55060 | 38.01800 | 7149 ft | 212 kts | 134° |
| 2026-04-30 20:33 | 55.54069 | 38.03717 | 7891 ft | 210 kts | 130° |
| 2026-04-30 20:33 | 55.52186 | 38.07703 | 9168 ft | 213 kts | 129° |
| 2026-04-30 20:33 | 55.51227 | 38.09712 | 9780 ft | 215 kts | 129° |
| 2026-04-30 20:34 | 55.49875 | 38.14256 | 10927 ft | 216 kts | 88° |
| 2026-04-30 20:34 | 55.50883 | 38.19102 | 12123 ft | 214 kts | 46° |
| 2026-04-30 20:35 | 55.52094 | 38.20583 | 12689 ft | 214 kts | 17° |
| 2026-04-30 20:35 | 55.53615 | 38.20709 | 12950 ft | 233 kts | 343° |
| 2026-04-30 20:35 | 55.56868 | 38.18226 | 13441 ft | 277 kts | 336° |
| 2026-04-30 20:36 | 55.58579 | 38.16471 | 13883 ft | 292 kts | 320° |
| 2026-04-30 20:36 | 55.59913 | 38.13730 | 14548 ft | 299 kts | 301° |
| 2026-04-30 20:36 | 55.60749 | 38.06590 | 15196 ft | 308 kts | 261° |
| 2026-04-30 20:37 | 55.60075 | 38.03006 | 15217 ft | 309 kts | 241° |
| 2026-04-30 20:37 | 55.58738 | 38.00034 | 15219 ft | 310 kts | 220° |
| 2026-04-30 20:37 | 55.56912 | 37.98021 | 15221 ft | 311 kts | 206° |
| 2026-04-30 20:37 | 55.55117 | 37.95921 | 15217 ft | 311 kts | 226° |
| 2026-04-30 20:38 | 55.53876 | 37.92822 | 15223 ft | 310 kts | 244° |
| 2026-04-30 20:38 | 55.53099 | 37.89291 | 15221 ft | 309 kts | 256° |
| 2026-04-30 20:38 | 55.52599 | 37.85660 | 15220 ft | 309 kts | 257° |
| 2026-04-30 20:39 | 55.51489 | 37.78347 | 15220 ft | 309 kts | 256° |
| 2026-04-30 20:39 | 55.50913 | 37.74692 | 15220 ft | 309 kts | 256° |
| 2026-04-30 20:39 | 55.50277 | 37.71080 | 15218 ft | 310 kts | 249° |
| 2026-04-30 20:40 | 55.48507 | 37.64148 | 15220 ft | 310 kts | 247° |
| 2026-04-30 20:40 | 55.47627 | 37.60678 | 15220 ft | 310 kts | 247° |
| 2026-04-30 20:40 | 55.46655 | 37.57296 | 15219 ft | 310 kts | 238° |
| 2026-04-30 20:41 | 55.43654 | 37.51944 | 15219 ft | 311 kts | 215° |
| 2026-04-30 20:41 | 55.41880 | 37.49758 | 15220 ft | 312 kts | 215° |
| 2026-04-30 20:41 | 55.40104 | 37.47568 | 15220 ft | 312 kts | 215° |
| 2026-04-30 20:41 | 55.38326 | 37.45373 | 15218 ft | 312 kts | 216° |
| 2026-04-30 20:42 | 55.36555 | 37.43173 | 15221 ft | 312 kts | 216° |
| 2026-04-30 20:42 | 55.34795 | 37.40945 | 15217 ft | 312 kts | 220° |
| 2026-04-30 20:42 | 55.32229 | 37.34940 | 15223 ft | 314 kts | 249° |
| 2026-04-30 20:43 | 55.31637 | 37.31160 | 15221 ft | 326 kts | 264° |
| 2026-04-30 20:43 | 55.31535 | 37.27217 | 15218 ft | 329 kts | 271° |
| 2026-04-30 20:43 | 55.31496 | 37.23206 | 15220 ft | 329 kts | 270° |
| 2026-04-30 20:44 | 55.31400 | 37.15162 | 15220 ft | 330 kts | 271° |
| 2026-04-30 20:44 | 55.31617 | 37.11171 | 15219 ft | 328 kts | 283° |
| 2026-04-30 20:44 | 55.33169 | 37.03592 | 16406 ft | 333 kts | 294° |
| 2026-04-30 20:45 | 55.34891 | 36.95953 | 17184 ft | 338 kts | 293° |
| 2026-04-30 20:45 | 55.35748 | 36.92105 | 17216 ft | 338 kts | 293° |
| 2026-04-30 20:45 | 55.36678 | 36.88381 | 17218 ft | 337 kts | 302° |
| 2026-04-30 20:46 | 55.42203 | 36.80897 | 17721 ft | 335 kts | 347° |
| 2026-04-30 20:46 | 55.44499 | 36.80284 | 18448 ft | 335 kts | 358° |
| 2026-04-30 20:47 | 55.49175 | 36.79763 | 19769 ft | 339 kts | 358° |
| 2026-04-30 20:47 | 55.51534 | 36.79512 | 20403 ft | 341 kts | 358° |
| 2026-04-30 20:48 | 55.56266 | 36.79019 | 21602 ft | 345 kts | 358° |
| 2026-04-30 20:48 | 55.58665 | 36.78583 | 22183 ft | 348 kts | 351° |
| 2026-04-30 20:48 | 55.60998 | 36.77352 | 22731 ft | 354 kts | 340° |
| 2026-04-30 20:48 | 55.63216 | 36.75253 | 22981 ft | 369 kts | 328° |
| 2026-04-30 20:49 | 55.65323 | 36.72588 | 23436 ft | 374 kts | 327° |
| 2026-04-30 20:49 | 55.67448 | 36.69913 | 23939 ft | 377 kts | 328° |
| 2026-04-30 20:49 | 55.69597 | 36.67228 | 24458 ft | 379 kts | 328° |
| 2026-04-30 20:50 | 55.73927 | 36.61821 | 25407 ft | 383 kts | 328° |
| 2026-04-30 20:50 | 55.76080 | 36.59120 | 25858 ft | 385 kts | 328° |
| 2026-04-30 20:50 | 55.78277 | 36.56359 | 26294 ft | 387 kts | 328° |
| 2026-04-30 20:50 | 55.80486 | 36.53581 | 26713 ft | 390 kts | 328° |
| 2026-04-30 20:51 | 55.82700 | 36.50788 | 27122 ft | 392 kts | 329° |
| 2026-04-30 20:51 | 55.87176 | 36.45128 | 27922 ft | 397 kts | 329° |
| 2026-04-30 20:51 | 55.89452 | 36.42342 | 28308 ft | 398 kts | 330° |
| 2026-04-30 20:52 | 55.91767 | 36.39615 | 28692 ft | 400 kts | 331° |
| 2026-04-30 20:52 | 55.94079 | 36.36947 | 29038 ft | 402 kts | 331° |
| 2026-04-30 20:52 | 55.98797 | 36.31503 | 29769 ft | 406 kts | 331° |
| 2026-04-30 20:53 | 56.01171 | 36.28737 | 30095 ft | 408 kts | 331° |
| 2026-04-30 20:53 | 56.03548 | 36.25943 | 30428 ft | 410 kts | 331° |
| 2026-04-30 20:53 | 56.05936 | 36.23118 | 30706 ft | 413 kts | 330° |
| 2026-04-30 20:54 | 56.10762 | 36.17393 | 31232 ft | 419 kts | 330° |
| 2026-04-30 20:54 | 56.13086 | 36.14190 | 31472 ft | 427 kts | 321° |
| 2026-04-30 20:54 | 56.15087 | 36.10297 | 31722 ft | 435 kts | 311° |
| 2026-04-30 20:55 | 56.18076 | 36.00749 | 32396 ft | 442 kts | 300° |
| 2026-04-30 20:55 | 56.19456 | 35.95823 | 32710 ft | 440 kts | 304° |
| 2026-04-30 20:55 | 56.21180 | 35.91327 | 33023 ft | 435 kts | 313° |
| 2026-04-30 20:56 | 56.25634 | 35.84138 | 33639 ft | 429 kts | 327° |
| 2026-04-30 20:56 | 56.28042 | 35.80955 | 33956 ft | 430 kts | 327° |
| 2026-04-30 20:56 | 56.32822 | 35.74576 | 34522 ft | 431 kts | 326° |
| 2026-04-30 20:57 | 56.35226 | 35.71352 | 34812 ft | 431 kts | 326° |
| 2026-04-30 20:57 | 56.37633 | 35.68113 | 35109 ft | 431 kts | 326° |
| 2026-04-30 20:57 | 56.40030 | 35.64881 | 35367 ft | 431 kts | 326° |
| 2026-04-30 20:58 | 56.44847 | 35.58402 | 35881 ft | 431 kts | 326° |
| 2026-04-30 20:58 | 56.47254 | 35.55164 | 36114 ft | 432 kts | 326° |
| 2026-04-30 20:58 | 56.52021 | 35.48749 | 36211 ft | 427 kts | 326° |
| 2026-04-30 20:59 | 56.59124 | 35.39114 | 36211 ft | 424 kts | 326° |
| 2026-04-30 21:00 | 56.68509 | 35.26149 | 36210 ft | 423 kts | 326° |
| 2026-04-30 21:01 | 56.75498 | 35.16439 | 36212 ft | 423 kts | 326° |
| 2026-04-30 21:02 | 56.82516 | 35.06659 | 36215 ft | 423 kts | 326° |
| 2026-04-30 21:02 | 56.87177 | 35.00135 | 36215 ft | 422 kts | 326° |
| 2026-04-30 21:03 | 56.91788 | 34.93659 | 36214 ft | 420 kts | 327° |
| 2026-04-30 21:03 | 56.96609 | 34.87669 | 36213 ft | 418 kts | 330° |
| 2026-04-30 21:04 | 57.01524 | 34.82027 | 36211 ft | 416 kts | 331° |
| 2026-04-30 21:04 | 57.08840 | 34.73418 | 36213 ft | 416 kts | 330° |
| 2026-04-30 21:05 | 57.13644 | 34.67610 | 36212 ft | 416 kts | 330° |
| 2026-04-30 21:05 | 57.18476 | 34.61736 | 36215 ft | 416 kts | 330° |
| 2026-04-30 21:06 | 57.23308 | 34.55864 | 36215 ft | 416 kts | 330° |
| 2026-04-30 21:06 | 57.28130 | 34.49997 | 36215 ft | 415 kts | 330° |
| 2026-04-30 21:07 | 57.32940 | 34.44120 | 36212 ft | 414 kts | 330° |
| 2026-04-30 21:07 | 57.37712 | 34.38277 | 36211 ft | 414 kts | 330° |
| 2026-04-30 21:08 | 57.42512 | 34.32371 | 36213 ft | 414 kts | 330° |
| 2026-04-30 21:08 | 57.47311 | 34.26468 | 36206 ft | 411 kts | 330° |
| 2026-04-30 21:09 | 57.49662 | 34.23566 | 36190 ft | 399 kts | 330° |
| 2026-04-30 21:09 | 57.51925 | 34.20761 | 36191 ft | 385 kts | 330° |
| 2026-04-30 21:09 | 57.56425 | 34.15191 | 36198 ft | 399 kts | 330° |
| 2026-04-30 21:10 | 57.61110 | 34.09375 | 36202 ft | 408 kts | 330° |
| 2026-04-30 21:10 | 57.65830 | 34.03476 | 36202 ft | 409 kts | 330° |
| 2026-04-30 21:11 | 57.70551 | 33.97567 | 36202 ft | 408 kts | 330° |
| 2026-04-30 21:11 | 57.75223 | 33.91676 | 36201 ft | 407 kts | 330° |
| 2026-04-30 21:12 | 57.79924 | 33.85759 | 36200 ft | 407 kts | 330° |
| 2026-04-30 21:12 | 57.84616 | 33.79833 | 36197 ft | 407 kts | 330° |
| 2026-04-30 21:13 | 57.89261 | 33.73703 | 36198 ft | 409 kts | 327° |
| 2026-04-30 21:13 | 57.93673 | 33.67019 | 36198 ft | 410 kts | 324° |
| 2026-04-30 21:14 | 57.98053 | 33.60123 | 36197 ft | 410 kts | 325° |
| 2026-04-30 21:14 | 58.02455 | 33.53317 | 36196 ft | 409 kts | 326° |
| 2026-04-30 21:15 | 58.06879 | 33.46564 | 36186 ft | 409 kts | 326° |
| 2026-04-30 21:15 | 58.11301 | 33.39804 | 36188 ft | 409 kts | 326° |
| 2026-04-30 21:16 | 58.15680 | 33.33044 | 36189 ft | 409 kts | 326° |
| 2026-04-30 21:16 | 58.20088 | 33.26227 | 35984 ft | 409 kts | 326° |
| 2026-04-30 21:17 | 58.22285 | 33.22830 | 35734 ft | 407 kts | 326° |
| 2026-04-30 21:17 | 58.24477 | 33.19435 | 35483 ft | 405 kts | 326° |
| 2026-04-30 21:17 | 58.26645 | 33.16066 | 35232 ft | 401 kts | 326° |
| 2026-04-30 21:17 | 58.28792 | 33.12712 | 34981 ft | 397 kts | 326° |
| 2026-04-30 21:18 | 58.30887 | 33.09435 | 34741 ft | 394 kts | 326° |
| 2026-04-30 21:18 | 58.32995 | 33.06140 | 34486 ft | 390 kts | 327° |
| 2026-04-30 21:18 | 58.35083 | 33.02874 | 34237 ft | 387 kts | 327° |
| 2026-04-30 21:18 | 58.37153 | 32.99632 | 33988 ft | 384 kts | 327° |
| 2026-04-30 21:19 | 58.39209 | 32.96411 | 33737 ft | 381 kts | 327° |
| 2026-04-30 21:19 | 58.41247 | 32.93214 | 33488 ft | 378 kts | 327° |
| 2026-04-30 21:19 | 58.43271 | 32.90033 | 33234 ft | 375 kts | 327° |
| 2026-04-30 21:19 | 58.45274 | 32.86882 | 32927 ft | 372 kts | 327° |
| 2026-04-30 21:20 | 58.47264 | 32.83744 | 32422 ft | 370 kts | 327° |
| 2026-04-30 21:20 | 58.49214 | 32.80666 | 31914 ft | 368 kts | 327° |
| 2026-04-30 21:20 | 58.51176 | 32.77560 | 31414 ft | 365 kts | 328° |
| 2026-04-30 21:20 | 58.53123 | 32.74469 | 30914 ft | 363 kts | 328° |
| 2026-04-30 21:21 | 58.55057 | 32.71394 | 30429 ft | 360 kts | 328° |
| 2026-04-30 21:21 | 58.56976 | 32.68340 | 29945 ft | 357 kts | 328° |
| 2026-04-30 21:21 | 58.60763 | 32.62311 | 29026 ft | 351 kts | 328° |
| 2026-04-30 21:22 | 58.62629 | 32.59329 | 28582 ft | 348 kts | 328° |
| 2026-04-30 21:22 | 58.68117 | 32.50543 | 27262 ft | 340 kts | 327° |
| 2026-04-30 21:23 | 58.69931 | 32.47628 | 26815 ft | 339 kts | 327° |
| 2026-04-30 21:23 | 58.71735 | 32.44723 | 26367 ft | 337 kts | 327° |
| 2026-04-30 21:23 | 58.75321 | 32.38947 | 25442 ft | 335 kts | 327° |
| 2026-04-30 21:24 | 58.77099 | 32.36078 | 24977 ft | 333 kts | 327° |
| 2026-04-30 21:24 | 58.78878 | 32.33207 | 24500 ft | 332 kts | 327° |
| 2026-04-30 21:24 | 58.80646 | 32.30350 | 24015 ft | 331 kts | 327° |
| 2026-04-30 21:24 | 58.82383 | 32.27537 | 23538 ft | 330 kts | 327° |
| 2026-04-30 21:25 | 58.85879 | 32.21864 | 22598 ft | 327 kts | 326° |
| 2026-04-30 21:25 | 58.87613 | 32.19032 | 22125 ft | 326 kts | 326° |
| 2026-04-30 21:25 | 58.89338 | 32.16211 | 21668 ft | 324 kts | 326° |
| 2026-04-30 21:26 | 58.92761 | 32.10615 | 20765 ft | 320 kts | 326° |
| 2026-04-30 21:26 | 58.94455 | 32.07851 | 20321 ft | 318 kts | 326° |
| 2026-04-30 21:27 | 58.97788 | 32.02393 | 19454 ft | 314 kts | 326° |
| 2026-04-30 21:27 | 58.99446 | 31.99662 | 19021 ft | 312 kts | 326° |
| 2026-04-30 21:27 | 59.01091 | 31.96951 | 18595 ft | 309 kts | 326° |
| 2026-04-30 21:28 | 59.04348 | 31.91580 | 17760 ft | 305 kts | 326° |
| 2026-04-30 21:28 | 59.05957 | 31.88910 | 17351 ft | 303 kts | 326° |
| 2026-04-30 21:28 | 59.09156 | 31.83609 | 16546 ft | 301 kts | 325° |
| 2026-04-30 21:29 | 59.10722 | 31.81009 | 16152 ft | 299 kts | 324° |
| 2026-04-30 21:29 | 59.15228 | 31.72640 | 14968 ft | 297 kts | 321° |
| 2026-04-30 21:30 | 59.18150 | 31.66985 | 14180 ft | 294 kts | 321° |
| 2026-04-30 21:31 | 59.22483 | 31.58688 | 13016 ft | 290 kts | 321° |
| 2026-04-30 21:31 | 59.25354 | 31.53210 | 12252 ft | 287 kts | 320° |
| 2026-04-30 21:32 | 59.28195 | 31.47786 | 11499 ft | 284 kts | 320° |
| 2026-04-30 21:32 | 59.29602 | 31.45089 | 11128 ft | 283 kts | 320° |
| 2026-04-30 21:32 | 59.31001 | 31.42400 | 10746 ft | 281 kts | 319° |
| 2026-04-30 21:32 | 59.32373 | 31.39754 | 10543 ft | 273 kts | 319° |
| 2026-04-30 21:33 | 59.33721 | 31.37155 | 10181 ft | 272 kts | 319° |
| 2026-04-30 21:33 | 59.36410 | 31.31978 | 9321 ft | 274 kts | 318° |
| 2026-04-30 21:33 | 59.37767 | 31.29362 | 8994 ft | 272 kts | 317° |
| 2026-04-30 21:34 | 59.39115 | 31.26753 | 8568 ft | 272 kts | 317° |
| 2026-04-30 21:34 | 59.41790 | 31.21569 | 7851 ft | 268 kts | 317° |
| 2026-04-30 21:34 | 59.43108 | 31.19009 | 7495 ft | 265 kts | 317° |
| 2026-04-30 21:35 | 59.44412 | 31.16484 | 7137 ft | 262 kts | 317° |
| 2026-04-30 21:35 | 59.45690 | 31.14003 | 6805 ft | 261 kts | 317° |
| 2026-04-30 21:35 | 59.46976 | 31.11498 | 6455 ft | 260 kts | 316° |
| 2026-04-30 21:35 | 59.48255 | 31.08998 | 6102 ft | 258 kts | 316° |
| 2026-04-30 21:36 | 59.49524 | 31.06515 | 5772 ft | 257 kts | 316° |
| 2026-04-30 21:36 | 59.50788 | 31.04040 | 5419 ft | 255 kts | 316° |
| 2026-04-30 21:37 | 59.54363 | 30.96339 | 4924 ft | 254 kts | 311° |
| 2026-04-30 21:37 | 59.55509 | 30.93678 | 4819 ft | 255 kts | 311° |
| 2026-04-30 21:37 | 59.56640 | 30.91040 | 4688 ft | 255 kts | 311° |
| 2026-04-30 21:37 | 59.57785 | 30.88374 | 4583 ft | 254 kts | 311° |
| 2026-04-30 21:38 | 59.58923 | 30.85731 | 4467 ft | 253 kts | 311° |
| 2026-04-30 21:38 | 59.60072 | 30.83082 | 4345 ft | 253 kts | 311° |
| 2026-04-30 21:38 | 59.61218 | 30.80443 | 4236 ft | 253 kts | 311° |
| 2026-04-30 21:38 | 59.62363 | 30.77807 | 4116 ft | 252 kts | 312° |
| 2026-04-30 21:39 | 59.63503 | 30.75176 | 3984 ft | 251 kts | 311° |
| 2026-04-30 21:39 | 59.64638 | 30.72552 | 3768 ft | 248 kts | 311° |
| 2026-04-30 21:39 | 59.65731 | 30.70025 | 3606 ft | 236 kts | 311° |
| 2026-04-30 21:39 | 59.66802 | 30.67747 | 3497 ft | 223 kts | 321° |
| 2026-04-30 21:40 | 59.68034 | 30.66001 | 3347 ft | 213 kts | 326° |
| 2026-04-30 21:40 | 59.69233 | 30.64342 | 3187 ft | 208 kts | 326° |
| 2026-04-30 21:40 | 59.70414 | 30.62696 | 3042 ft | 208 kts | 325° |
| 2026-04-30 21:40 | 59.71598 | 30.61041 | 2898 ft | 208 kts | 326° |
| 2026-04-30 21:41 | 59.72778 | 30.59392 | 2754 ft | 207 kts | 325° |
| 2026-04-30 21:41 | 59.73956 | 30.57728 | 2604 ft | 208 kts | 322° |
| 2026-04-30 21:41 | 59.74877 | 30.55532 | 2464 ft | 209 kts | 296° |
| 2026-04-30 21:41 | 59.75341 | 30.52845 | 2318 ft | 209 kts | 287° |
| 2026-04-30 21:42 | 59.75754 | 30.50094 | 2212 ft | 209 kts | 287° |
| 2026-04-30 21:42 | 59.76169 | 30.47339 | 2032 ft | 208 kts | 287° |
| 2026-04-30 21:42 | 59.76584 | 30.44593 | 1771 ft | 207 kts | 287° |
| 2026-04-30 21:42 | 59.76991 | 30.41886 | 1508 ft | 201 kts | 287° |
| 2026-04-30 21:43 | 59.77382 | 30.39292 | 1281 ft | 190 kts | 287° |
| 2026-04-30 21:43 | 59.77629 | 30.37656 | 1085 ft | 184 kts | 286° |
| 2026-04-30 21:43 | 59.78097 | 30.34543 | 775 ft | 166 kts | 286° |
| 2026-04-30 21:43 | 59.78400 | 30.32516 | 565 ft | 146 kts | 286° |
| 2026-04-30 21:44 | 59.78680 | 30.30640 | 376 ft | 138 kts | 286° |
| 2026-04-30 21:44 | 59.78951 | 30.28830 | 199 ft | 136 kts | 286° |
| 2026-04-30 21:44 | 59.79215 | 30.27064 | 85 ft | 125 kts | 287° |
| 2026-04-30 21:44 | 59.79391 | 30.25875 | 83 ft | 47 kts | 286° |
| 2026-04-30 21:45 | 59.79447 | 30.25487 | 84 ft | 27 kts | 286° |
| 2026-04-30 21:45 | 59.79499 | 30.25137 | 84 ft | 26 kts | 287° |
| 2026-04-30 21:45 | 59.79552 | 30.24787 | 83 ft | 27 kts | 287° |
| 2026-04-30 21:45 | 59.79605 | 30.24440 | 82 ft | 27 kts | 287° |
| 2026-04-30 21:46 | 59.79658 | 30.24086 | 82 ft | 27 kts | 286° |
| 2026-04-30 21:46 | 59.79713 | 30.23729 | 84 ft | 27 kts | 287° |
| 2026-04-30 21:46 | 59.79777 | 30.23383 | 81 ft | 26 kts | 292° |
| 2026-04-30 21:46 | 59.79875 | 30.23109 | 80 ft | 13 kts | 314° |
| 2026-04-30 21:47 | 59.79954 | 30.23038 | 79 ft | 14 kts | 18° |
| 2026-04-30 21:47 | 59.79964 | 30.23211 | 81 ft | 14 kts | 107° |
| 2026-04-30 21:47 | 59.79935 | 30.23409 | 83 ft | 15 kts | 106° |
| 2026-04-30 21:47 | 59.79903 | 30.23620 | 80 ft | 16 kts | 106° |
| 2026-04-30 21:48 | 59.79870 | 30.23844 | 82 ft | 17 kts | 106° |
| 2026-04-30 21:48 | 59.79842 | 30.24033 | 80 ft | 10 kts | 106° |
| 2026-04-30 21:48 | 59.79820 | 30.24184 | 81 ft | 13 kts | 106° |
| 2026-04-30 21:48 | 59.79791 | 30.24380 | 82 ft | 17 kts | 106° |
| 2026-04-30 21:49 | 59.79755 | 30.24621 | 81 ft | 19 kts | 107° |
| 2026-04-30 21:49 | 59.79721 | 30.24840 | 86 ft | 16 kts | 107° |
| 2026-04-30 21:49 | 59.79688 | 30.25058 | 83 ft | 17 kts | 107° |
| 2026-04-30 21:49 | 59.79652 | 30.25290 | 83 ft | 18 kts | 107° |
| 2026-04-30 21:50 | 59.79618 | 30.25534 | 85 ft | 19 kts | 105° |
| 2026-04-30 21:50 | 59.79583 | 30.25788 | 85 ft | 19 kts | 105° |
| 2026-04-30 21:50 | 59.79545 | 30.26046 | 83 ft | 20 kts | 109° |
| 2026-04-30 21:50 | 59.79514 | 30.26239 | 83 ft | 7 kts | 107° |
| 2026-04-30 21:51 | 59.79512 | 30.26344 | 85 ft | 8 kts | 56° |
| 2026-04-30 21:51 | 59.79576 | 30.26397 | 81 ft | 11 kts | 18° |
| 2026-04-30 21:51 | 59.79649 | 30.26442 | 83 ft | 9 kts | 17° |
| 2026-04-30 21:51 | 59.79701 | 30.26471 | 81 ft | 6 kts | 15° |
| 2026-04-30 21:52 | 59.79712 | 30.26477 | 82 ft | 1 kts | 15° |
| 2026-04-30 21:52 | 59.79720 | 30.26482 | 84 ft | 0 kts | 15° |
| 2026-04-30 21:52 | 59.79724 | 30.26484 | 81 ft | 1 kts | 18° |
| 2026-04-30 21:52 | 59.79732 | 30.26494 | 83 ft | 1 kts | 24° |
| 2026-04-30 21:53 | 59.79753 | 30.26505 | 85 ft | 6 kts | 14° |
| 2026-04-30 21:53 | 59.79783 | 30.26598 | 81 ft | 10 kts | 91° |
| 2026-04-30 21:53 | 59.79778 | 30.26687 | 81 ft | 0 kts | 95° |